MSC Vigo — A8ZV8 — position and weather

sailwx.info

Track history (hours):
 
Tides and Currents Weather Stations Pressure Air Temp Water Temp Dewpoint Dewpoint Depression Visibility Wind Speed Wind Dir Waves Ship Positions

MSC Vigo

Last reported at 2017-Jan-08 05:28 UTC. Time now 2017-Jan-17 23:23 UTC.
Position S 23°04' W 041°46'.
Warning: this ship's position is 9 days out of date.

Length 270 m; draft 12.1 m.

Type: Cargo ship. MMSI: 636092276.

Date/timePositionNaut miles runAvg speedWind from/ knotsBaromVisibWave heightAir tempDewpointWater temp
2017-Jan-08 05:28S 23°04' W 041°46'4813.9
2017-Jan-08 02:03S 23°08' W 042°38'815.0
2017-Jan-08 01:33S 23°09' W 042°46'1515.3
2017-Jan-08 00:33S 23°04' W 043°01'1212.2
2017-Jan-07 23:33S 22°54' W 043°09'3 3.0
2017-Jan-07 22:28S 22°53' W 043°12'0 0.0
2017-Jan-07 21:28S 22°53' W 043°12'0 0.0
2017-Jan-07 20:28S 22°53' W 043°12'0 0.0
2017-Jan-07 19:28S 22°53' W 043°12'0 0.0
2017-Jan-07 18:28S 22°53' W 043°12'0 0.0
2017-Jan-07 17:28S 22°53' W 043°12'0 0.0
2017-Jan-07 16:28S 22°53' W 043°12'0 0.0
2017-Jan-07 15:28S 22°53' W 043°12'0 0.0
2017-Jan-07 14:28S 22°53' W 043°12'0 0.0
2017-Jan-07 13:28S 22°53' W 043°12'4 4.2
2017-Jan-07 12:33S 22°54' W 043°09'8 8.2
2017-Jan-07 11:33S 23°03' W 043°10'17016.6
2017-Jan-07 01:20S 24°15' W 045°58'1316.8
2017-Jan-07 00:33S 24°15' W 046°12'1312.7
2017-Jan-06 23:33S 24°07' W 046°23'10 9.7
2017-Jan-06 22:33S 23°59' W 046°17'5 1.1
2017-Jan-06 18:23S 23°55' W 046°21'0 0.0
2017-Jan-06 16:20S 23°55' W 046°21'0 0.0
2017-Jan-06 15:26S 23°55' W 046°21'0 0.0
2017-Jan-06 14:29S 23°55' W 046°21'0 0.0
2017-Jan-06 09:27S 23°55' W 046°21'4 4.3
2017-Jan-06 08:33S 23°58' W 046°18'1010.4
2017-Jan-06 07:33S 24°07' W 046°23'1818.3
2017-Jan-06 06:33S 24°24' W 046°30'1817.8
2017-Jan-06 05:33S 24°39' W 046°41'1918.0
2017-Jan-06 04:31S 24°52' W 046°55'  
2017-Jan-02 08:17S 26°53' W 048°28'107 2.4
2016-Dec-31 12:30S 25°18' W 047°34'4013.2
2016-Dec-31 09:30S 24°52' W 047°00'1813.1
2016-Dec-31 08:08S 24°40' W 046°45'813.3
2016-Dec-31 07:33S 24°35' W 046°39'1313.1
2016-Dec-31 06:34S 24°25' W 046°30'1313.3
2016-Dec-31 05:34S 24°13' W 046°25'1313.1
2016-Dec-31 04:34S 24°00' W 046°20'5 5.0
2016-Dec-31 03:32S 23°55' W 046°20'0 0.1
2016-Dec-30 21:25S 23°55' W 046°21'0 0.0
2016-Dec-30 20:16S 23°55' W 046°21'0 0.0
2016-Dec-30 19:28S 23°55' W 046°21'0 0.0
2016-Dec-30 18:07S 23°55' W 046°21'0 0.0
2016-Dec-30 17:19S 23°55' W 046°21'0 0.0
2016-Dec-30 16:27S 23°55' W 046°21'4 4.6
2016-Dec-30 15:33S 23°58' W 046°18'9 8.7
2016-Dec-30 14:34S 24°05' W 046°23'1111.0
2016-Dec-30 13:33S 24°15' W 046°17'1515.2
2016-Dec-30 12:33S 24°15' W 046°01'17114.9
2016-Dec-30 01:06S 23°03' W 043°12'813.8
2016-Dec-30 00:33S 22°56' W 043°08'5 0.3
2016-Dec-29 07:21S 22°53' W 043°12'3 3.5
2016-Dec-29 06:33S 22°53' W 043°10'1312.6
2016-Dec-29 05:33S 23°04' W 043°03'  
Track history (hours):
 
Tides and Currents Weather Stations Pressure Air Temp Water Temp Dewpoint Dewpoint Depression Visibility Wind Speed Wind Dir Waves Ship Positions

MSC Vigo

Last reported at 2017-Jan-08 05:28 UTC. Time now 2017-Jan-17 23:23 UTC.
Position S 23°04' W 041°46'.
Warning: this ship's position is 9 days out of date.

Length 270 m; draft 12.1 m.

Type: Cargo ship. MMSI: 636092276.

Date/timePositionNaut miles runAvg speedWind from/ knotsBaromVisibWave heightAir tempDewpointWater temp
2017-Jan-08 05:28S 23°04' W 041°46'4813.9
2017-Jan-08 02:03S 23°08' W 042°38'815.0
2017-Jan-08 01:33S 23°09' W 042°46'1515.3
2017-Jan-08 00:33S 23°04' W 043°01'1212.2
2017-Jan-07 23:33S 22°54' W 043°09'3 3.0
2017-Jan-07 22:28S 22°53' W 043°12'0 0.0
2017-Jan-07 21:28S 22°53' W 043°12'0 0.0
2017-Jan-07 20:28S 22°53' W 043°12'0 0.0
2017-Jan-07 19:28S 22°53' W 043°12'0 0.0
2017-Jan-07 18:28S 22°53' W 043°12'0 0.0
2017-Jan-07 17:28S 22°53' W 043°12'0 0.0
2017-Jan-07 16:28S 22°53' W 043°12'0 0.0
2017-Jan-07 15:28S 22°53' W 043°12'0 0.0
2017-Jan-07 14:28S 22°53' W 043°12'0 0.0
2017-Jan-07 13:28S 22°53' W 043°12'4 4.2
2017-Jan-07 12:33S 22°54' W 043°09'8 8.2
2017-Jan-07 11:33S 23°03' W 043°10'17016.6
2017-Jan-07 01:20S 24°15' W 045°58'1316.8
2017-Jan-07 00:33S 24°15' W 046°12'1312.7
2017-Jan-06 23:33S 24°07' W 046°23'10 9.7
2017-Jan-06 22:33S 23°59' W 046°17'5 1.1
2017-Jan-06 18:23S 23°55' W 046°21'0 0.0
2017-Jan-06 16:20S 23°55' W 046°21'0 0.0
2017-Jan-06 15:26S 23°55' W 046°21'0 0.0
2017-Jan-06 14:29S 23°55' W 046°21'0 0.0
2017-Jan-06 09:27S 23°55' W 046°21'4 4.3
2017-Jan-06 08:33S 23°58' W 046°18'1010.4
2017-Jan-06 07:33S 24°07' W 046°23'1818.3
2017-Jan-06 06:33S 24°24' W 046°30'1817.8
2017-Jan-06 05:33S 24°39' W 046°41'1918.0
2017-Jan-06 04:31S 24°52' W 046°55'  
2017-Jan-02 08:17S 26°53' W 048°28'107 2.4
2016-Dec-31 12:30S 25°18' W 047°34'4013.2
2016-Dec-31 09:30S 24°52' W 047°00'1813.1
2016-Dec-31 08:08S 24°40' W 046°45'813.3
2016-Dec-31 07:33S 24°35' W 046°39'1313.1
2016-Dec-31 06:34S 24°25' W 046°30'1313.3
2016-Dec-31 05:34S 24°13' W 046°25'1313.1
2016-Dec-31 04:34S 24°00' W 046°20'5 5.0
2016-Dec-31 03:32S 23°55' W 046°20'0 0.1
2016-Dec-30 21:25S 23°55' W 046°21'0 0.0
2016-Dec-30 20:16S 23°55' W 046°21'0 0.0
2016-Dec-30 19:28S 23°55' W 046°21'0 0.0
2016-Dec-30 18:07S 23°55' W 046°21'0 0.0
2016-Dec-30 17:19S 23°55' W 046°21'0 0.0
2016-Dec-30 16:27S 23°55' W 046°21'4 4.6
2016-Dec-30 15:33S 23°58' W 046°18'9 8.7
2016-Dec-30 14:34S 24°05' W 046°23'1111.0
2016-Dec-30 13:33S 24°15' W 046°17'1515.2
2016-Dec-30 12:33S 24°15' W 046°01'17114.9
2016-Dec-30 01:06S 23°03' W 043°12'813.8
2016-Dec-30 00:33S 22°56' W 043°08'5 0.3
2016-Dec-29 07:21S 22°53' W 043°12'3 3.5
2016-Dec-29 06:33S 22°53' W 043°10'1312.6
2016-Dec-29 05:33S 23°04' W 043°03'  

Dump ship's entire track history